Time;durP1;ratioP1;P1;durP2;ratioP2;P2;SDS_P1;SDS_P2;PMS_P1;PMS_P2;Temp;Humidity;BMP_temperature;BMP_pressure;BME280_temperature;BME280_humidity;BME280_pressure;Samples;Min_cycle;Max_cycle;Signal;HPM_P1;HPM_P2
2023/08/14 00:00:27;;;;;;;0.10;0.10;;;;;;;;;;5038533;28;20275;-73
2023/08/14 00:02:54;;;;;;;0.00;0.00;;;;;;;;;;5071433;28;20381;-74
2023/08/14 00:05:20;;;;;;;0.10;0.10;;;;;;;;;;5037232;28;20208;-73
2023/08/14 00:07:48;;;;;;;0.00;0.00;;;;;;;;;;5072651;28;20299;-73
2023/08/14 00:10:14;;;;;;;0.00;0.00;;;;;;;;;;5035762;28;20215;-73
2023/08/14 00:12:42;;;;;;;0.10;0.10;;;;;;;;;;5073606;28;20203;-73
2023/08/14 00:15:08;;;;;;;0.10;0.10;;;;;;;;;;5036232;28;20455;-74
2023/08/14 00:17:35;;;;;;;0.10;0.10;;;;;;;;;;5075484;28;20216;-74
2023/08/14 00:20:04;;;;;;;0.10;0.10;;;;;;;;;;5043922;28;20464;-74
2023/08/14 00:22:30;;;;;;;0.00;0.00;;;;;;;;;;5065642;28;20240;-73
2023/08/14 00:24:57;;;;;;;0.10;0.10;;;;;;;;;;5043848;28;20266;-74
2023/08/14 00:27:25;;;;;;;0.10;0.10;;;;;;;;;;5065285;28;20504;-73
2023/08/14 00:29:52;;;;;;;0.10;0.10;;;;;;;;;;5043038;28;20218;-75
2023/08/14 00:32:19;;;;;;;0.00;0.00;;;;;;;;;;5065538;28;20235;-74
2023/08/14 00:34:45;;;;;;;0.03;0.03;;;;;;;;;;5043805;28;20455;-74
2023/08/14 00:37:11;;;;;;;0.05;0.05;;;;;;;;;;5065409;28;20247;-74
2023/08/14 00:39:38;;;;;;;0.10;0.10;;;;;;;;;;5043409;28;20235;-74
2023/08/14 00:42:04;;;;;;;0.00;0.00;;;;;;;;;;5064408;28;20245;-74
2023/08/14 00:44:30;;;;;;;0.10;0.10;;;;;;;;;;5044329;28;20211;-74
2023/08/14 00:46:58;;;;;;;0.10;0.10;;;;;;;;;;5062388;28;20438;-74
2023/08/14 00:49:25;;;;;;;0.00;0.00;;;;;;;;;;5045668;28;20233;-74
2023/08/14 00:51:51;;;;;;;0.08;0.08;;;;;;;;;;5060906;28;20258;-73
2023/08/14 00:54:17;;;;;;;0.10;0.10;;;;;;;;;;5047332;28;20245;-74
2023/08/14 00:56:44;;;;;;;0.00;0.00;;;;;;;;;;5058936;28;20504;-74
2023/08/14 00:59:11;;;;;;;0.00;0.00;;;;;;;;;;5049705;28;20234;-75
2023/08/14 01:01:37;;;;;;;0.08;0.08;;;;;;;;;;5057144;28;20249;-74
2023/08/14 01:04:06;;;;;;;0.00;0.00;;;;;;;;;;5051401;28;20449;-73
2023/08/14 01:06:32;;;;;;;0.10;0.10;;;;;;;;;;5055520;28;20262;-73
2023/08/14 01:08:59;;;;;;;0.00;0.00;;;;;;;;;;5052302;28;20296;-73
2023/08/14 01:11:29;;;;;;;0.08;0.08;;;;;;;;;;5053760;28;20526;-74
2023/08/14 01:13:58;;;;;;;0.00;0.00;;;;;;;;;;5053171;28;20196;-74
2023/08/14 01:16:26;;;;;;;0.10;0.10;;;;;;;;;;5053603;28;20258;-73
2023/08/14 01:18:53;;;;;;;0.10;0.10;;;;;;;;;;5054099;28;20507;-74
2023/08/14 01:21:29;;;;;;;0.00;0.00;;;;;;;;;;5052132;28;20242;-74
2023/08/14 01:24:00;;;;;;;0.05;0.05;;;;;;;;;;5053520;28;20248;-73
2023/08/14 01:26:29;;;;;;;0.10;0.10;;;;;;;;;;5053963;28;20267;-73
2023/08/14 01:28:55;;;;;;;0.10;0.10;;;;;;;;;;5053615;28;20379;-74
2023/08/14 01:31:22;;;;;;;0.00;0.00;;;;;;;;;;5052746;28;20473;-74
2023/08/14 01:33:48;;;;;;;0.10;0.10;;;;;;;;;;5055009;28;20205;-73
2023/08/14 01:36:18;;;;;;;0.03;0.03;;;;;;;;;;5050571;28;20240;-74
2023/08/14 01:38:50;;;;;;;0.10;0.10;;;;;;;;;;5055981;28;20234;-74
2023/08/14 01:41:19;;;;;;;0.00;0.00;;;;;;;;;;5055148;28;20498;-74
2023/08/14 01:43:49;;;;;;;0.10;0.10;;;;;;;;;;5059402;28;20229;-73
2023/08/14 01:46:16;;;;;;;0.10;0.10;;;;;;;;;;5054315;28;20243;-73
2023/08/14 01:48:42;;;;;;;0.10;0.10;;;;;;;;;;5060038;28;20288;-74
2023/08/14 01:51:10;;;;;;;0.10;0.10;;;;;;;;;;5052606;28;20252;-74
2023/08/14 01:53:36;;;;;;;0.00;0.00;;;;;;;;;;5061705;28;20443;-74
2023/08/14 01:56:03;;;;;;;0.10;0.10;;;;;;;;;;5050916;28;20268;-73
2023/08/14 01:58:30;;;;;;;0.10;0.10;;;;;;;;;;5063359;28;20204;-74
2023/08/14 02:00:57;;;;;;;0.10;0.10;;;;;;;;;;5048928;28;20247;-74
2023/08/14 02:03:25;;;;;;;0.10;0.10;;;;;;;;;;5065197;28;20234;-74
2023/08/14 02:05:51;;;;;;;0.00;0.00;;;;;;;;;;5047477;28;20285;-73
2023/08/14 02:08:18;;;;;;;0.08;0.08;;;;;;;;;;5066554;28;20233;-73
2023/08/14 02:10:46;;;;;;;0.10;0.10;;;;;;;;;;5045533;28;20313;-73
2023/08/14 02:13:12;;;;;;;0.10;0.10;;;;;;;;;;5067923;28;20534;-73
2023/08/14 02:15:39;;;;;;;0.10;0.10;;;;;;;;;;5044126;28;20251;-74
2023/08/14 02:18:06;;;;;;;0.10;0.10;;;;;;;;;;5069743;28;20237;-73
2023/08/14 02:20:33;;;;;;;0.10;0.10;;;;;;;;;;5042429;28;20239;-73
2023/08/14 02:22:59;;;;;;;0.00;0.00;;;;;;;;;;5070811;28;20300;-73
2023/08/14 02:25:25;;;;;;;0.10;0.10;;;;;;;;;;5040581;28;20278;-73
2023/08/14 02:27:52;;;;;;;0.00;0.00;;;;;;;;;;5073122;28;20222;-74
2023/08/14 02:30:18;;;;;;;0.00;0.00;;;;;;;;;;5038502;28;20284;-73
2023/08/14 02:32:44;;;;;;;0.10;0.10;;;;;;;;;;5074735;28;20224;-74
2023/08/14 02:35:12;;;;;;;0.10;0.10;;;;;;;;;;5036148;28;20279;-73
2023/08/14 02:37:39;;;;;;;0.10;0.10;;;;;;;;;;5076822;28;20417;-74
2023/08/14 02:40:07;;;;;;;0.10;0.10;;;;;;;;;;5045626;28;20201;-72
2023/08/14 02:42:33;;;;;;;0.08;0.08;;;;;;;;;;5067353;28;20216;-72
2023/08/14 02:45:00;;;;;;;0.00;0.00;;;;;;;;;;5045296;28;20274;-73
2023/08/14 02:47:26;;;;;;;0.05;0.05;;;;;;;;;;5067313;28;20310;-73
2023/08/14 02:49:52;;;;;;;0.10;0.10;;;;;;;;;;5045190;28;20303;-73
2023/08/14 02:52:20;;;;;;;0.03;0.03;;;;;;;;;;5066210;28;20284;-73
2023/08/14 02:54:46;;;;;;;0.10;0.10;;;;;;;;;;5045079;28;20249;-73
2023/08/14 02:57:13;;;;;;;0.10;0.10;;;;;;;;;;5067125;28;20242;-73
2023/08/14 02:59:40;;;;;;;0.10;0.10;;;;;;;;;;5045112;28;20278;-73
2023/08/14 03:02:06;;;;;;;0.10;0.10;;;;;;;;;;5066651;28;20249;-72
2023/08/14 03:04:33;;;;;;;0.10;0.10;;;;;;;;;;5045085;28;20233;-72
2023/08/14 03:06:59;;;;;;;0.10;0.10;;;;;;;;;;5064516;28;20265;-72
2023/08/14 03:09:27;;;;;;;0.08;0.08;;;;;;;;;;5047206;28;20475;-73
2023/08/14 03:11:53;;;;;;;0.10;0.10;;;;;;;;;;5062981;28;20256;-73
2023/08/14 03:14:20;;;;;;;0.10;0.10;;;;;;;;;;5048387;28;20206;-73
2023/08/14 03:16:46;;;;;;;0.10;0.10;;;;;;;;;;5060973;28;20498;-73
2023/08/14 03:19:12;;;;;;;0.10;0.10;;;;;;;;;;5050273;28;20232;-73
2023/08/14 03:21:39;;;;;;;0.00;0.00;;;;;;;;;;5058776;28;20436;-73
2023/08/14 03:24:05;;;;;;;0.00;0.00;;;;;;;;;;5052427;28;20491;-72
2023/08/14 03:26:33;;;;;;;0.10;0.10;;;;;;;;;;5056975;28;20266;-73
2023/08/14 03:28:59;;;;;;;0.08;0.08;;;;;;;;;;5053531;28;20244;-73
2023/08/14 03:31:26;;;;;;;0.05;0.05;;;;;;;;;;5055179;28;20307;-72
2023/08/14 03:33:52;;;;;;;0.10;0.10;;;;;;;;;;5055342;28;20235;-73
2023/08/14 03:36:18;;;;;;;0.10;0.10;;;;;;;;;;5053419;28;20303;-72
2023/08/14 03:38:45;;;;;;;0.03;0.03;;;;;;;;;;5057644;28;20275;-72
2023/08/14 03:41:11;;;;;;;0.10;0.10;;;;;;;;;;5051163;28;20250;-72
2023/08/14 03:43:39;;;;;;;0.08;0.08;;;;;;;;;;5059108;28;20246;-71
2023/08/14 03:46:05;;;;;;;0.10;0.10;;;;;;;;;;5049577;28;20262;-72
2023/08/14 03:48:31;;;;;;;0.00;0.00;;;;;;;;;;5060734;28;20269;-72
2023/08/14 03:50:58;;;;;;;0.00;0.00;;;;;;;;;;5047784;28;20262;-72
2023/08/14 03:53:24;;;;;;;0.10;0.10;;;;;;;;;;5062566;28;20246;-72
2023/08/14 03:55:50;;;;;;;0.08;0.08;;;;;;;;;;5045711;28;20255;-72
2023/08/14 03:58:17;;;;;;;0.00;0.00;;;;;;;;;;5064267;28;20457;-72
2023/08/14 04:00:46;;;;;;;0.03;0.03;;;;;;;;;;5043618;28;20241;-73
2023/08/14 04:03:13;;;;;;;0.10;0.10;;;;;;;;;;5065371;28;20248;-73
2023/08/14 04:05:40;;;;;;;0.10;0.10;;;;;;;;;;5040738;28;20300;-73
2023/08/14 04:08:06;;;;;;;0.10;0.10;;;;;;;;;;5068401;28;20208;-73
2023/08/14 04:10:33;;;;;;;0.10;0.10;;;;;;;;;;5040148;28;20255;-73
2023/08/14 04:12:59;;;;;;;0.10;0.10;;;;;;;;;;5069012;28;20207;-74
2023/08/14 04:15:25;;;;;;;0.08;0.08;;;;;;;;;;5038424;28;20287;-73
2023/08/14 04:17:53;;;;;;;0.00;0.00;;;;;;;;;;5070718;28;20227;-73
2023/08/14 04:20:20;;;;;;;0.10;0.10;;;;;;;;;;5036780;28;20277;-73
2023/08/14 04:22:46;;;;;;;0.08;0.08;;;;;;;;;;5072163;28;20331;-74
2023/08/14 04:25:12;;;;;;;0.10;0.10;;;;;;;;;;5034715;28;20250;-74
2023/08/14 04:27:39;;;;;;;0.10;0.10;;;;;;;;;;5074243;28;20196;-73
2023/08/14 04:30:06;;;;;;;0.10;0.10;;;;;;;;;;5043375;28;20231;-74
2023/08/14 04:32:32;;;;;;;0.00;0.00;;;;;;;;;;5052101;28;20234;-73
2023/08/14 04:35:00;;;;;;;0.10;0.10;;;;;;;;;;5063571;28;20406;-74
2023/08/14 04:37:26;;;;;;;0.00;0.00;;;;;;;;;;5068799;28;20256;-73
2023/08/14 04:39:53;;;;;;;0.03;0.03;;;;;;;;;;5063396;28;20235;-73
2023/08/14 04:42:19;;;;;;;0.05;0.05;;;;;;;;;;5068740;28;20241;-74
2023/08/14 04:44:46;;;;;;;0.00;0.00;;;;;;;;;;5063455;28;20204;-74
2023/08/14 04:47:12;;;;;;;0.10;0.10;;;;;;;;;;5068536;28;20557;-72
2023/08/14 04:49:39;;;;;;;0.10;0.10;;;;;;;;;;5063501;28;20260;-72
2023/08/14 04:52:06;;;;;;;0.08;0.08;;;;;;;;;;5068305;28;20509;-73
2023/08/14 04:54:34;;;;;;;0.10;0.10;;;;;;;;;;5063435;28;20473;-72
2023/08/14 04:57:01;;;;;;;0.10;0.10;;;;;;;;;;5067684;28;20265;-73
2023/08/14 04:59:27;;;;;;;0.10;0.10;;;;;;;;;;5063930;28;20269;-72
2023/08/14 05:01:53;;;;;;;0.00;0.00;;;;;;;;;;5066578;28;20242;-74
2023/08/14 05:04:20;;;;;;;0.08;0.08;;;;;;;;;;5064887;28;20276;-72
2023/08/14 05:06:46;;;;;;;1.50;1.40;;;;;;;;;;5065555;28;20257;-72
2023/08/14 05:09:14;;;;;;;0.15;0.15;;;;;;;;;;5066072;28;20395;-72
2023/08/14 05:11:40;;;;;;;0.10;0.10;;;;;;;;;;5064973;28;20255;-73
2023/08/14 05:14:07;;;;;;;0.10;0.10;;;;;;;;;;5066765;28;20222;-72
2023/08/14 05:16:33;;;;;;;0.10;0.10;;;;;;;;;;5067804;28;20252;-73
2023/08/14 05:18:59;;;;;;;0.10;0.10;;;;;;;;;;5071628;28;20264;-72
2023/08/14 05:21:26;;;;;;;0.05;0.05;;;;;;;;;;5066799;28;20594;-72
2023/08/14 05:23:52;;;;;;;0.10;0.10;;;;;;;;;;5072215;28;20257;-72
2023/08/14 05:26:20;;;;;;;0.08;0.08;;;;;;;;;;5065880;28;20506;-73
2023/08/14 05:28:46;;;;;;;0.10;0.10;;;;;;;;;;5072929;28;20206;-73
2023/08/14 05:31:12;;;;;;;0.08;0.08;;;;;;;;;;5064741;28;20265;-72
2023/08/14 05:33:39;;;;;;;0.08;0.08;;;;;;;;;;5074067;28;20240;-72
2023/08/14 05:36:05;;;;;;;0.08;0.08;;;;;;;;;;5063718;28;20253;-73
2023/08/14 05:38:32;;;;;;;0.10;0.10;;;;;;;;;;5074794;28;20379;-73
2023/08/14 05:40:59;;;;;;;0.10;0.10;;;;;;;;;;5062997;28;20276;-73
2023/08/14 05:43:26;;;;;;;0.00;0.00;;;;;;;;;;5075169;28;20237;-72
2023/08/14 05:45:53;;;;;;;0.30;0.30;;;;;;;;;;5062027;28;20258;-73
2023/08/14 05:48:21;;;;;;;0.10;0.10;;;;;;;;;;5075978;28;20271;-73
2023/08/14 05:50:47;;;;;;;0.10;0.10;;;;;;;;;;5061038;28;20301;-73
2023/08/14 05:53:14;;;;;;;0.00;0.00;;;;;;;;;;5076754;28;20221;-74
2023/08/14 05:55:41;;;;;;;0.00;0.00;;;;;;;;;;5060387;28;20317;-74
2023/08/14 05:58:08;;;;;;;0.00;0.00;;;;;;;;;;5077412;28;20448;-73
2023/08/14 06:00:36;;;;;;;0.32;0.32;;;;;;;;;;5059086;28;20240;-73
2023/08/14 06:03:03;;;;;;;0.00;0.00;;;;;;;;;;5078528;28;20212;-73
2023/08/14 06:05:29;;;;;;;0.10;0.10;;;;;;;;;;5058793;28;20557;-73
2023/08/14 06:07:55;;;;;;;0.10;0.10;;;;;;;;;;5079036;28;20211;-73
2023/08/14 06:10:22;;;;;;;0.00;0.00;;;;;;;;;;5057480;28;20263;-73
2023/08/14 06:12:49;;;;;;;0.10;0.10;;;;;;;;;;5079869;28;20432;-73
2023/08/14 06:15:16;;;;;;;0.00;0.00;;;;;;;;;;5056596;28;20197;-73
2023/08/14 06:17:44;;;;;;;0.03;0.03;;;;;;;;;;5080598;28;20200;-73
2023/08/14 06:20:11;;;;;;;0.00;0.00;;;;;;;;;;5054834;28;20237;-73
2023/08/14 06:22:39;;;;;;;0.10;0.10;;;;;;;;;;5080938;28;20287;-73
2023/08/14 06:25:06;;;;;;;0.10;0.10;;;;;;;;;;5065595;28;20527;-73
2023/08/14 06:27:32;;;;;;;0.10;0.10;;;;;;;;;;5054323;28;20427;-73
2023/08/14 06:29:58;;;;;;;0.10;0.10;;;;;;;;;;5065630;28;20255;-74
2023/08/14 06:32:25;;;;;;;0.10;0.10;;;;;;;;;;5071118;28;20310;-75
2023/08/14 06:34:52;;;;;;;0.00;0.00;;;;;;;;;;5065631;28;20280;-74
2023/08/14 06:37:19;;;;;;;0.10;0.10;;;;;;;;;;5070969;28;20443;-75
2023/08/14 06:39:45;;;;;;;0.10;0.10;;;;;;;;;;5065822;28;20231;-75
2023/08/14 06:42:12;;;;;;;0.00;0.00;;;;;;;;;;5070930;28;20345;-74
2023/08/14 06:44:39;;;;;;;0.00;0.00;;;;;;;;;;5065533;28;20234;-74
2023/08/14 06:47:05;;;;;;;0.00;0.00;;;;;;;;;;5070651;28;20254;-74
2023/08/14 06:49:32;;;;;;;0.00;0.00;;;;;;;;;;5065862;28;20255;-74
2023/08/14 06:51:59;;;;;;;0.03;0.03;;;;;;;;;;5069359;28;20254;-74
2023/08/14 06:54:26;;;;;;;0.08;0.08;;;;;;;;;;5066270;28;20247;-75
2023/08/14 06:56:52;;;;;;;0.00;0.00;;;;;;;;;;5068653;28;20307;-75
2023/08/14 06:59:18;;;;;;;0.30;0.30;;;;;;;;;;5067117;28;20275;-74
2023/08/14 07:01:45;;;;;;;0.00;0.00;;;;;;;;;;5067522;28;20566;-74
2023/08/14 07:04:11;;;;;;;0.00;0.00;;;;;;;;;;5068284;28;20211;-74
2023/08/14 07:06:40;;;;;;;0.00;0.00;;;;;;;;;;5066543;28;20239;-72
2023/08/14 07:09:16;;;;;;;0.00;0.00;;;;;;;;;;5068625;28;20504;-72
2023/08/14 07:11:42;;;;;;;0.00;0.00;;;;;;;;;;5066998;28;20235;-72
2023/08/14 07:14:10;;;;;;;0.00;0.00;;;;;;;;;;5068238;28;20204;-73
2023/08/14 07:16:37;;;;;;;0.00;0.00;;;;;;;;;;5066103;28;20265;-73
2023/08/14 07:19:04;;;;;;;0.10;0.10;;;;;;;;;;5068709;28;20267;-73
2023/08/14 07:21:30;;;;;;;0.00;0.00;;;;;;;;;;5065269;28;20470;-73
2023/08/14 07:23:56;;;;;;;0.00;0.00;;;;;;;;;;5069762;28;20224;-73
2023/08/14 07:26:24;;;;;;;0.00;0.00;;;;;;;;;;5064065;28;20246;-74
2023/08/14 07:28:50;;;;;;;0.00;0.00;;;;;;;;;;5070569;28;20455;-73
2023/08/14 07:31:17;;;;;;;0.10;0.10;;;;;;;;;;5063188;28;20281;-77
2023/08/14 07:33:43;;;;;;;0.00;0.00;;;;;;;;;;5071301;28;20204;-77
2023/08/14 07:36:10;;;;;;;0.10;0.10;;;;;;;;;;5062286;28;20239;-77
2023/08/14 07:38:36;;;;;;;0.00;0.00;;;;;;;;;;5071607;28;20275;-77
2023/08/14 07:41:03;;;;;;;0.00;0.00;;;;;;;;;;5061510;28;20554;-76
2023/08/14 07:43:30;;;;;;;0.00;0.00;;;;;;;;;;5072733;28;20275;-77
2023/08/14 07:45:57;;;;;;;0.00;0.00;;;;;;;;;;5060324;28;20239;-77
2023/08/14 07:48:23;;;;;;;0.00;0.00;;;;;;;;;;5073724;28;20216;-77
2023/08/14 07:50:51;;;;;;;0.00;0.00;;;;;;;;;;5059397;28;20243;-76
2023/08/14 07:53:18;;;;;;;0.00;0.00;;;;;;;;;;5074114;28;20434;-77
2023/08/14 07:55:44;;;;;;;0.00;0.00;;;;;;;;;;5058835;28;20578;-77
2023/08/14 07:58:10;;;;;;;0.00;0.00;;;;;;;;;;5074866;28;20242;-76
2023/08/14 08:00:38;;;;;;;0.00;0.00;;;;;;;;;;5057771;28;20239;-77
2023/08/14 08:03:06;;;;;;;0.00;0.00;;;;;;;;;;5075933;28;20583;-77
2023/08/14 08:05:32;;;;;;;0.00;0.00;;;;;;;;;;5057106;28;20239;-77
2023/08/14 08:08:01;;;;;;;0.00;0.00;;;;;;;;;;5076501;28;20196;-77
2023/08/14 08:10:27;;;;;;;0.00;0.00;;;;;;;;;;5056273;28;20220;-76
2023/08/14 08:12:53;;;;;;;0.08;0.08;;;;;;;;;;5077149;28;20211;-76
2023/08/14 08:15:20;;;;;;;0.00;0.00;;;;;;;;;;5055330;28;20429;-77
2023/08/14 08:17:48;;;;;;;0.00;0.00;;;;;;;;;;5078013;28;20211;-76
2023/08/14 08:20:14;;;;;;;0.00;0.00;;;;;;;;;;5054200;28;20239;-77
2023/08/14 08:22:40;;;;;;;0.00;0.00;;;;;;;;;;5078648;28;20420;-77
2023/08/14 08:25:07;;;;;;;0.10;0.10;;;;;;;;;;5063399;28;20204;-74
2023/08/14 08:27:35;;;;;;;0.00;0.00;;;;;;;;;;5077375;28;20405;-77
2023/08/14 08:30:02;;;;;;;0.00;0.00;;;;;;;;;;5063566;28;20230;-77
2023/08/14 08:32:28;;;;;;;0.00;0.00;;;;;;;;;;5069090;28;20239;-77
2023/08/14 08:34:56;;;;;;;0.00;0.00;;;;;;;;;;5063552;28;20243;-77
2023/08/14 08:37:23;;;;;;;0.03;0.03;;;;;;;;;;5068952;28;20483;-77
2023/08/14 08:39:49;;;;;;;0.00;0.00;;;;;;;;;;5063732;28;20208;-77
2023/08/14 08:42:16;;;;;;;0.00;0.00;;;;;;;;;;5068797;28;20289;-77
2023/08/14 08:44:45;;;;;;;0.00;0.00;;;;;;;;;;5063675;28;20294;-77
2023/08/14 08:47:14;;;;;;;0.00;0.00;;;;;;;;;;5068674;28;20480;-77
2023/08/14 08:49:41;;;;;;;0.00;0.00;;;;;;;;;;5064890;28;20523;-78
2023/08/14 08:52:09;;;;;;;0.00;0.00;;;;;;;;;;5072794;28;20249;-79
2023/08/14 08:54:35;;;;;;;0.00;0.00;;;;;;;;;;5067466;28;20246;-77
2023/08/14 08:57:01;;;;;;;0.03;0.03;;;;;;;;;;5071933;28;20309;-76
2023/08/14 08:59:28;;;;;;;0.00;0.00;;;;;;;;;;5068035;28;20203;-76
2023/08/14 09:01:54;;;;;;;0.00;0.00;;;;;;;;;;5070917;28;20302;-75
2023/08/14 09:04:21;;;;;;;0.00;0.00;;;;;;;;;;5069189;28;20207;-76
2023/08/14 09:06:47;;;;;;;0.00;0.00;;;;;;;;;;5069865;28;20540;-76
2023/08/14 09:09:15;;;;;;;0.00;0.00;;;;;;;;;;5070037;28;20243;-74
2023/08/14 09:11:41;;;;;;;0.00;0.00;;;;;;;;;;5069066;28;20251;-75
2023/08/14 09:14:08;;;;;;;0.00;0.00;;;;;;;;;;5070369;28;20235;-75
2023/08/14 09:16:34;;;;;;;0.00;0.00;;;;;;;;;;5068120;28;20293;-75
2023/08/14 09:19:01;;;;;;;0.00;0.00;;;;;;;;;;5071485;28;20235;-75
2023/08/14 09:21:28;;;;;;;0.00;0.00;;;;;;;;;;5066984;28;20245;-75
2023/08/14 09:23:54;;;;;;;0.00;0.00;;;;;;;;;;5072082;28;20258;-74
2023/08/14 09:26:23;;;;;;;0.00;0.00;;;;;;;;;;5066239;28;20246;-75
2023/08/14 09:28:49;;;;;;;0.00;0.00;;;;;;;;;;5072724;28;20271;-75
2023/08/14 09:31:16;;;;;;;0.00;0.00;;;;;;;;;;5065324;28;20575;-75
2023/08/14 09:33:43;;;;;;;0.00;0.00;;;;;;;;;;5073610;28;20403;-75
2023/08/14 09:36:09;;;;;;;0.00;0.00;;;;;;;;;;5064475;28;20239;-75
2023/08/14 09:38:36;;;;;;;0.00;0.00;;;;;;;;;;5074440;28;20239;-75
2023/08/14 09:41:03;;;;;;;0.00;0.00;;;;;;;;;;5063556;28;20242;-74
2023/08/14 09:43:31;;;;;;;0.00;0.00;;;;;;;;;;5075047;28;20395;-74
2023/08/14 09:45:58;;;;;;;0.00;0.00;;;;;;;;;;5062829;28;20461;-74
2023/08/14 09:48:39;;;;;;;0.00;0.00;;;;;;;;;;5075355;28;20235;-75
2023/08/14 09:51:05;;;;;;;0.10;0.10;;;;;;;;;;5063682;28;20496;-75
2023/08/14 09:53:31;;;;;;;0.00;0.00;;;;;;;;;;5074324;28;20254;-75
2023/08/14 09:55:59;;;;;;;0.00;0.00;;;;;;;;;;5062784;28;20310;-74
2023/08/14 09:58:25;;;;;;;0.10;0.10;;;;;;;;;;5075277;28;20211;-75
2023/08/14 10:00:53;;;;;;;0.00;0.00;;;;;;;;;;5061260;28;20239;-73
2023/08/14 10:03:21;;;;;;;0.00;0.00;;;;;;;;;;5075831;28;20242;-75
2023/08/14 10:05:47;;;;;;;0.00;0.00;;;;;;;;;;5060889;28;20262;-75
2023/08/14 10:08:14;;;;;;;0.00;0.00;;;;;;;;;;5076601;28;20212;-75
2023/08/14 10:10:41;;;;;;;0.00;0.00;;;;;;;;;;5060183;28;20516;-74
2023/08/14 10:13:09;;;;;;;0.00;0.00;;;;;;;;;;5077232;28;20204;-74
2023/08/14 10:15:37;;;;;;;0.00;0.00;;;;;;;;;;5059525;28;20239;-75
2023/08/14 10:18:10;;;;;;;0.00;0.00;;;;;;;;;;5077553;28;20231;-75
2023/08/14 10:20:37;;;;;;;0.00;0.00;;;;;;;;;;5059356;28;20243;-74
2023/08/14 10:23:04;;;;;;;0.00;0.00;;;;;;;;;;5077729;28;20224;-75
2023/08/14 10:25:31;;;;;;;0.00;0.00;;;;;;;;;;5058532;28;20250;-75
2023/08/14 10:27:57;;;;;;;0.00;0.00;;;;;;;;;;5078228;28;20239;-74
2023/08/14 10:30:24;;;;;;;0.00;0.00;;;;;;;;;;5057685;28;20400;-74
2023/08/14 10:32:50;;;;;;;0.00;0.00;;;;;;;;;;5079049;28;20204;-74
2023/08/14 10:35:18;;;;;;;0.00;0.00;;;;;;;;;;5056724;28;20235;-75
2023/08/14 10:37:44;;;;;;;0.00;0.00;;;;;;;;;;5080013;28;20215;-75
2023/08/14 10:40:13;;;;;;;0.00;0.00;;;;;;;;;;5055613;28;20231;-74
2023/08/14 10:42:41;;;;;;;0.00;0.00;;;;;;;;;;5080403;28;20246;-76
2023/08/14 10:45:08;;;;;;;0.00;0.00;;;;;;;;;;5063272;28;20211;-74
2023/08/14 10:47:38;;;;;;;0.00;0.00;;;;;;;;;;5080685;28;20220;-75
2023/08/14 10:50:12;;;;;;;0.00;0.00;;;;;;;;;;5065427;28;20211;-75
2023/08/14 10:52:42;;;;;;;0.00;0.00;;;;;;;;;;5054048;28;20285;-75
2023/08/14 10:55:14;;;;;;;0.00;0.00;;;;;;;;;;5060228;28;20258;-75
2023/08/14 10:57:40;;;;;;;0.00;0.00;;;;;;;;;;5079931;28;20220;-75
2023/08/14 11:00:18;;;;;;;0.00;0.00;;;;;;;;;;5065167;28;20210;-75
2023/08/14 11:02:49;;;;;;;0.00;0.00;;;;;;;;;;5045401;28;20196;-75
2023/08/14 11:05:16;;;;;;;0.00;0.00;;;;;;;;;;5036948;28;20193;-75
2023/08/14 11:07:56;;;;;;;0.00;0.00;;;;;;;;;;5074954;28;20255;-76
2023/08/14 11:10:24;;;;;;;0.00;0.00;;;;;;;;;;5038702;28;20193;-76
2023/08/14 11:12:50;;;;;;;0.00;0.00;;;;;;;;;;5071683;28;20239;-76
2023/08/14 11:15:17;;;;;;;0.00;0.00;;;;;;;;;;5037400;28;20459;-76
2023/08/14 11:17:43;;;;;;;0.00;0.00;;;;;;;;;;5074654;28;20543;-75
2023/08/14 11:20:10;;;;;;;0.00;0.00;;;;;;;;;;5035421;28;20239;-76
2023/08/14 11:22:37;;;;;;;0.00;0.00;;;;;;;;;;5076004;28;20227;-76
2023/08/14 11:25:06;;;;;;;0.00;0.00;;;;;;;;;;5044705;28;20205;-76
2023/08/14 11:27:32;;;;;;;0.00;0.00;;;;;;;;;;5066580;28;20247;-76
2023/08/14 11:29:58;;;;;;;0.00;0.00;;;;;;;;;;5044604;28;20212;-76
2023/08/14 11:32:25;;;;;;;0.00;0.00;;;;;;;;;;5066564;28;20243;-77
2023/08/14 11:34:51;;;;;;;0.00;0.00;;;;;;;;;;5044493;28;20232;-76
2023/08/14 11:37:18;;;;;;;0.00;0.00;;;;;;;;;;5066347;28;20440;-76
2023/08/14 11:39:44;;;;;;;0.00;0.00;;;;;;;;;;5044767;28;20395;-77
2023/08/14 11:42:12;;;;;;;0.00;0.00;;;;;;;;;;5066334;28;20250;-76
2023/08/14 11:44:38;;;;;;;0.00;0.00;;;;;;;;;;5044264;28;20243;-76
2023/08/14 11:47:06;;;;;;;0.00;0.00;;;;;;;;;;5065251;28;20310;-77
2023/08/14 11:49:34;;;;;;;0.00;0.00;;;;;;;;;;5044725;28;20258;-77
2023/08/14 11:52:02;;;;;;;0.00;0.00;;;;;;;;;;5063873;28;20238;-76
2023/08/14 11:54:28;;;;;;;0.00;0.00;;;;;;;;;;5045505;28;20212;-77
2023/08/14 11:56:55;;;;;;;0.00;0.00;;;;;;;;;;5062455;28;20251;-77
2023/08/14 11:59:22;;;;;;;0.00;0.00;;;;;;;;;;5047663;28;20216;-77
2023/08/14 12:01:50;;;;;;;0.00;0.00;;;;;;;;;;5060429;28;20267;-78
2023/08/14 12:04:16;;;;;;;0.00;0.00;;;;;;;;;;5049539;28;20236;-77
2023/08/14 12:06:43;;;;;;;0.00;0.00;;;;;;;;;;5059198;28;20262;-76
2023/08/14 12:09:10;;;;;;;0.00;0.00;;;;;;;;;;5050486;28;20243;-76
2023/08/14 12:11:38;;;;;;;0.00;0.00;;;;;;;;;;5057579;28;20428;-77
2023/08/14 12:14:05;;;;;;;0.00;0.00;;;;;;;;;;5051223;28;20227;-77
2023/08/14 12:16:33;;;;;;;0.00;0.00;;;;;;;;;;5055865;28;20239;-82
2023/08/14 12:18:59;;;;;;;0.00;0.00;;;;;;;;;;5053701;28;20239;-77
2023/08/14 12:21:26;;;;;;;0.00;0.00;;;;;;;;;;5054399;28;20262;-74
2023/08/14 12:23:54;;;;;;;0.00;0.00;;;;;;;;;;5054531;28;20291;-76
2023/08/14 12:26:21;;;;;;;0.00;0.00;;;;;;;;;;5052929;28;20239;-76
2023/08/14 12:28:47;;;;;;;0.00;0.00;;;;;;;;;;5056076;28;20232;-76
2023/08/14 12:31:14;;;;;;;0.00;0.00;;;;;;;;;;5050881;28;20290;-75
2023/08/14 12:33:42;;;;;;;0.00;0.00;;;;;;;;;;5058275;28;20211;-76
2023/08/14 12:36:10;;;;;;;0.00;0.00;;;;;;;;;;5049449;28;20298;-76
2023/08/14 12:38:36;;;;;;;0.00;0.00;;;;;;;;;;5059205;28;20460;-75
2023/08/14 12:41:02;;;;;;;0.00;0.00;;;;;;;;;;5048083;28;20239;-75
2023/08/14 12:43:29;;;;;;;0.00;0.00;;;;;;;;;;5061070;28;20456;-76
2023/08/14 12:45:55;;;;;;;0.00;0.00;;;;;;;;;;5045903;28;20308;-75
2023/08/14 12:48:22;;;;;;;0.00;0.00;;;;;;;;;;5062839;28;20403;-76
2023/08/14 12:50:49;;;;;;;0.00;0.00;;;;;;;;;;5044242;28;20326;-75
2023/08/14 12:53:17;;;;;;;0.00;0.00;;;;;;;;;;5064155;28;20228;-75
2023/08/14 12:55:44;;;;;;;0.00;0.00;;;;;;;;;;5042967;28;20302;-76
2023/08/14 12:58:11;;;;;;;0.93;0.93;;;;;;;;;;5065482;28;20204;-75
2023/08/14 13:00:40;;;;;;;0.00;0.00;;;;;;;;;;5040968;28;20261;-76
2023/08/14 13:03:07;;;;;;;0.00;0.00;;;;;;;;;;5066821;28;20552;-75
2023/08/14 13:05:33;;;;;;;0.00;0.00;;;;;;;;;;5040081;28;20255;-75
2023/08/14 13:08:01;;;;;;;0.00;0.00;;;;;;;;;;5068686;28;20232;-76
2023/08/14 13:10:27;;;;;;;0.00;0.00;;;;;;;;;;5038706;28;20252;-75
2023/08/14 13:12:56;;;;;;;0.00;0.00;;;;;;;;;;5069788;28;20259;-74
2023/08/14 13:15:23;;;;;;;0.00;0.00;;;;;;;;;;5036999;28;20205;-75
2023/08/14 13:17:49;;;;;;;0.00;0.00;;;;;;;;;;5071144;28;20243;-75
2023/08/14 13:20:16;;;;;;;0.00;0.00;;;;;;;;;;5035136;28;20244;-75
2023/08/14 13:22:42;;;;;;;0.00;0.00;;;;;;;;;;5072775;28;20221;-75
2023/08/14 13:25:10;;;;;;;0.00;0.00;;;;;;;;;;5033290;28;20236;-74
2023/08/14 13:27:36;;;;;;;0.00;0.00;;;;;;;;;;5074417;28;20232;-75
2023/08/14 13:30:03;;;;;;;0.00;0.00;;;;;;;;;;5043217;28;20272;-75
2023/08/14 13:32:29;;;;;;;0.00;0.00;;;;;;;;;;5064736;28;20236;-75
2023/08/14 13:34:55;;;;;;;0.00;0.00;;;;;;;;;;5043251;28;20399;-74
2023/08/14 13:37:22;;;;;;;0.00;0.00;;;;;;;;;;5068745;28;20238;-74
2023/08/14 13:39:48;;;;;;;0.00;0.00;;;;;;;;;;5046717;28;20281;-75
2023/08/14 13:42:16;;;;;;;0.00;0.00;;;;;;;;;;5068696;28;20247;-75
2023/08/14 13:44:42;;;;;;;0.00;0.00;;;;;;;;;;5046954;28;20255;-75
2023/08/14 13:47:09;;;;;;;0.00;0.00;;;;;;;;;;5068432;28;20258;-76
2023/08/14 13:49:35;;;;;;;0.00;0.00;;;;;;;;;;5046857;28;20405;-76
2023/08/14 13:52:01;;;;;;;0.00;0.00;;;;;;;;;;5066571;28;20339;-76
2023/08/14 13:54:28;;;;;;;2.15;2.05;;;;;;;;;;5047788;28;20213;-76
2023/08/14 13:56:54;;;;;;;0.00;0.00;;;;;;;;;;5064573;28;20310;-75
2023/08/14 13:59:22;;;;;;;0.00;0.00;;;;;;;;;;5049927;28;20247;-76
2023/08/14 14:01:48;;;;;;;0.00;0.00;;;;;;;;;;5063061;28;20271;-76
2023/08/14 14:04:14;;;;;;;0.00;0.00;;;;;;;;;;5051556;28;20236;-76
2023/08/14 14:06:41;;;;;;;0.00;0.00;;;;;;;;;;5061021;28;20311;-77
2023/08/14 14:09:08;;;;;;;0.00;0.00;;;;;;;;;;5053407;28;20204;-76
2023/08/14 14:11:34;;;;;;;0.00;0.00;;;;;;;;;;5059048;28;20245;-76
2023/08/14 14:14:00;;;;;;;0.00;0.00;;;;;;;;;;5054960;28;20275;-75
2023/08/14 14:16:48;;;;;;;0.00;0.00;;;;;;;;;;5057160;28;20526;-76
2023/08/14 14:19:14;;;;;;;6.82;6.50;;;;;;;;;;5051252;28;20216;-75
2023/08/14 14:21:41;;;;;;;0.00;0.00;;;;;;;;;;5060805;28;20243;-76
2023/08/14 14:24:08;;;;;;;0.00;0.00;;;;;;;;;;5052656;28;20248;-76
2023/08/14 14:26:34;;;;;;;0.00;0.00;;;;;;;;;;5058892;28;20246;-76
2023/08/14 14:29:00;;;;;;;0.00;0.00;;;;;;;;;;5054683;28;20396;-75
2023/08/14 14:31:28;;;;;;;0.00;0.00;;;;;;;;;;5056952;28;20250;-75
2023/08/14 14:33:54;;;;;;;0.00;0.00;;;;;;;;;;5056219;28;20259;-75
2023/08/14 14:36:21;;;;;;;0.00;0.00;;;;;;;;;;5055110;28;20246;-76
2023/08/14 14:38:47;;;;;;;0.00;0.00;;;;;;;;;;5058008;28;20475;-75
2023/08/14 14:41:14;;;;;;;0.00;0.00;;;;;;;;;;5053247;28;20247;-76